Aviator — V7NU9 — position and weather

sailwx.info

Track history (hours):
 
Tides and Currents Weather Stations Pressure Air Temp Water Temp Dewpoint Dewpoint Depression Visibility Wind Speed Wind Dir Waves Ship Positions

Aviator

Last reported at 2014-Oct-26 23:32 UTC. Time now 2014-Oct-30 12:13 UTC.
Position S 27°23' W 048°15'.

Length 140 m; draft 5.4 m.

Type: Cargo ship. MMSI: 538003023.

Date/timePositionNaut miles runAvg speedWind from/ knotsBaromVisibWave heightAir tempDewpointWater temp
2014-Oct-26 23:32S 27°23' W 048°15'1111.1
2014-Oct-26 22:33S 27°34' W 048°18'1110.8
2014-Oct-26 21:33S 27°44' W 048°20'  
2014-Oct-24 11:33S 35°08' W 055°24'10 8.7
2014-Oct-24 10:27S 35°12' W 055°34'0 0.0
2014-Oct-24 09:09S 35°12' W 055°34'0 0.0
2014-Oct-24 01:30S 35°12' W 055°34'0 0.0
2014-Oct-24 00:33S 35°12' W 055°34'0 0.0
2014-Oct-23 23:33S 35°12' W 055°34'0 0.0
2014-Oct-23 22:33S 35°12' W 055°34'  
2014-Oct-17 20:27S 35°12' W 055°34'0 0.1
2014-Oct-17 19:27S 35°12' W 055°34'33 2.6
2014-Oct-17 06:32S 35°10' W 056°15'2511.2
2014-Oct-17 04:17S 35°10' W 056°46'911.3
2014-Oct-17 03:31S 35°10' W 056°56'1611.2
2014-Oct-17 02:05S 35°00' W 057°12'612.1
2014-Oct-17 01:33S 34°55' W 057°17'1211.7
2014-Oct-17 00:33S 34°48' W 057°28'1211.7
2014-Oct-16 23:33S 34°44' W 057°42'  
Track history (hours):
 
Tides and Currents Weather Stations Pressure Air Temp Water Temp Dewpoint Dewpoint Depression Visibility Wind Speed Wind Dir Waves Ship Positions

Aviator

Last reported at 2014-Oct-26 23:32 UTC. Time now 2014-Oct-30 12:13 UTC.
Position S 27°23' W 048°15'.

Length 140 m; draft 5.4 m.

Type: Cargo ship. MMSI: 538003023.

Date/timePositionNaut miles runAvg speedWind from/ knotsBaromVisibWave heightAir tempDewpointWater temp
2014-Oct-26 23:32S 27°23' W 048°15'1111.1
2014-Oct-26 22:33S 27°34' W 048°18'1110.8
2014-Oct-26 21:33S 27°44' W 048°20'  
2014-Oct-24 11:33S 35°08' W 055°24'10 8.7
2014-Oct-24 10:27S 35°12' W 055°34'0 0.0
2014-Oct-24 09:09S 35°12' W 055°34'0 0.0
2014-Oct-24 01:30S 35°12' W 055°34'0 0.0
2014-Oct-24 00:33S 35°12' W 055°34'0 0.0
2014-Oct-23 23:33S 35°12' W 055°34'0 0.0
2014-Oct-23 22:33S 35°12' W 055°34'  
2014-Oct-17 20:27S 35°12' W 055°34'0 0.1
2014-Oct-17 19:27S 35°12' W 055°34'33 2.6
2014-Oct-17 06:32S 35°10' W 056°15'2511.2
2014-Oct-17 04:17S 35°10' W 056°46'911.3
2014-Oct-17 03:31S 35°10' W 056°56'1611.2
2014-Oct-17 02:05S 35°00' W 057°12'612.1
2014-Oct-17 01:33S 34°55' W 057°17'1211.7
2014-Oct-17 00:33S 34°48' W 057°28'1211.7
2014-Oct-16 23:33S 34°44' W 057°42'  

Dump ship's entire track history